If you wish to contribute or participate in the discussions about articles you are invited to join SKYbrary as a registered user

 Actions

Armilla Airport

From SKYbrary Wiki

LEGA
Airport
ICAO: LEGA
Summary
Name Armilla Airport
Region Europe
Territory Spain ES.gif
Location , Andalucia
Serving Granada
Elevation 700.126 m <br />2,297 ft <br />2,297 ft700.126 m <br />
Type medium airport
Coordinates 37° 7' 59.60" N, 3° 38' 8.50" W
Runways
Designator Length Width Surface ROPS
18/36 1300 m4,265.092 ft <br /> 30 m98.425 ft <br /> ASP /


METAR
Observation LEGA 130730Z VRB02KT CAVOK 23/08 Q1021
Station Granada / Armilla
Date/Time 13 June 2021 07:30:00
Wind direction °
Wind speed 02 kts
Lowest cloud amount clouds and visibility OK
Temperature 23°C
Dew point 8°C
Humidity 38%
QNH 1021 hPa
Weather condition n/a